Flight Track Log - Related Links

Times and Time Zones

All times are in EDT time to prevent confusion due to time zone crossing. See the C-FXDD flight status page for this flight to view local times or setup timezone preferences in your user account.

Time Position Orientation Groundspeed Altitude Reporting Facility
EDT Latitude Longitude Course Direction KTS MPH feet Rate Location/Type
Sat 10:07:24 AM 54.3333 -97.9667 168° South 150 173 5,100  Level Winnipeg Center
Sat 10:08:24 AM 54.3000 -97.9667 180° South 160 184 5,100 -1 Level Winnipeg Center
Sat 10:10:00 AM 54.2259 -97.9368 167° South  Level FlightAware Approximate
Sat 10:12:00 AM 54.0045 -97.8470 168° South  Level FlightAware Approximate
Sat 10:17:00 AM 53.9026 -97.7994 163° South  Level FlightAware Approximate
Sat 10:18:00 AM 53.8571 -97.7755 163° South  Level FlightAware Approximate
Sat 10:19:00 AM 53.8117 -97.7515 163° South  Level FlightAware Approximate
Sat 10:20:00 AM 53.7662 -97.7277 163° South  Level FlightAware Approximate
Sat 10:21:00 AM 53.7207 -97.7038 163° South  Level FlightAware Approximate
Sat 10:22:00 AM 53.6753 -97.6801 163° South  Level FlightAware Approximate
Sat 10:23:00 AM 53.6298 -97.6563 163° South  Level FlightAware Approximate
Sat 10:24:00 AM 53.5843 -97.6327 163° South  Level FlightAware Approximate
Sat 10:25:00 AM 53.5388 -97.6091 163° South  Level FlightAware Approximate
Sat 10:26:00 AM 53.4933 -97.5855 163° South  Level FlightAware Approximate
Sat 10:27:00 AM 53.4478 -97.5620 163° South  Level FlightAware Approximate
Sat 10:28:00 AM 53.4023 -97.5385 163° South  Level FlightAware Approximate
Sat 10:29:00 AM 53.3568 -97.5151 163° South  Level FlightAware Approximate
Sat 10:30:00 AM 53.3113 -97.4917 163° South  Level FlightAware Approximate
Sat 10:31:00 AM 53.2658 -97.4684 163° South  Level FlightAware Approximate
Sat 10:32:00 AM 53.2202 -97.4451 163° South  Level FlightAware Approximate
Sat 10:33:00 AM 53.1747 -97.4219 163° South  Level FlightAware Approximate
Sat 10:34:00 AM 53.1292 -97.3987 163° South  Level FlightAware Approximate
Sat 10:35:00 AM 53.0836 -97.3756 163° South  Level FlightAware Approximate
Sat 10:36:00 AM 53.0381 -97.3525 163° South  Level FlightAware Approximate
Sat 10:37:00 AM 52.9926 -97.3295 163° South  Level FlightAware Approximate
Sat 10:38:00 AM 52.9470 -97.3065 163° South  Level FlightAware Approximate
Sat 10:39:00 AM 52.9015 -97.2836 163° South  Level FlightAware Approximate
Sat 10:40:00 AM 52.8559 -97.2607 163° South  Level FlightAware Approximate
Sat 10:41:00 AM 52.8103 -97.2379 163° South  Level FlightAware Approximate
Sat 10:42:00 AM 52.7648 -97.2151 163° South  Level FlightAware Approximate
Sat 10:43:00 AM 52.7192 -97.1924 163° South  Level FlightAware Approximate
Sat 10:44:00 AM 52.6736 -97.1697 163° South  Level FlightAware Approximate
Sat 10:45:00 AM 52.6281 -97.1471 163° South  Level FlightAware Approximate
Sat 10:46:00 AM 52.5825 -97.1245 163° South  Level FlightAware Approximate
Sat 10:47:00 AM 52.5367 -97.1028 164° South  Level FlightAware Approximate
Sat 10:48:00 AM 52.4909 -97.0816 164° South  Level FlightAware Approximate
Sat 10:49:00 AM 52.4451 -97.0604 164° South  Level FlightAware Approximate
Sat 10:50:00 AM 52.3993 -97.0393 164° South  Level FlightAware Approximate
Sat 10:51:00 AM 52.3534 -97.0182 164° South  Level FlightAware Approximate
Sat 10:52:00 AM 52.3086 -96.9920 160° South  Level FlightAware Approximate
Sat 10:53:00 AM 52.2639 -96.9654 160° South  Level FlightAware Approximate
Sat 10:54:00 AM 52.2191 -96.9389 160° South  Level FlightAware Approximate
Sat 10:55:00 AM 52.1744 -96.9124 160° South  Level FlightAware Approximate
Sat 10:56:00 AM 52.1296 -96.8860 160° South  Level FlightAware Approximate
Sat 10:57:00 AM 52.0849 -96.8596 160° South  Level FlightAware Approximate
Sat 10:58:00 AM 52.0401 -96.8333 160° South  Level FlightAware Approximate
Sat 10:59:00 AM 51.9953 -96.8070 160° South  Level FlightAware Approximate
Sat 11:00:00 AM 51.9506 -96.7808 160° South  Level FlightAware Approximate
Sat 11:01:00 AM 51.9058 -96.7546 160° South  Level FlightAware Approximate
Sat 11:02:00 AM 51.8610 -96.7285 160° South  Level FlightAware Approximate
Sat 11:03:00 AM 51.8162 -96.7024 160° South  Level FlightAware Approximate
Sat 11:04:00 AM 51.7709 -96.6872 191° South  Level FlightAware Approximate
Sat 11:05:00 AM 51.7241 -96.7015 191° South  Level FlightAware Approximate
Sat 11:06:00 AM 51.6773 -96.7159 191° South  Level FlightAware Approximate
Sat 11:07:00 AM 51.6306 -96.7302 191° South  Level FlightAware Approximate
Sat 11:08:00 AM 51.5838 -96.7445 191° South  Level FlightAware Approximate
Sat 11:09:00 AM 51.5370 -96.7587 191° South  Level FlightAware Approximate
Sat 11:10:00 AM 51.4902 -96.7730 191° South  Level FlightAware Approximate
Sat 11:11:00 AM 51.4435 -96.7872 191° South  Level FlightAware Approximate
Sat 11:12:00 AM 51.3967 -96.8013 191° South  Level FlightAware Approximate
Sat 11:13:00 AM 51.3499 -96.8155 191° South  Level FlightAware Approximate
Sat 11:14:00 AM 51.3031 -96.8296 191° South  Level FlightAware Approximate
Sat 11:15:00 AM 51.2564 -96.8437 191° South  Level FlightAware Approximate
Sat 11:16:00 AM 51.2096 -96.8577 191° South  Level FlightAware Approximate
Sat 11:16:13 AM 51.2333 -96.8500 191° South 170 196 5,000  Level Winnipeg Center
Sat 11:17:00 AM 51.1628 -96.8717 191° South  Level FlightAware Approximate
Sat 11:17:13 AM 51.1833 -96.8500 180° South 180 207 5,100  Level Winnipeg Center
Sat 11:18:00 AM 51.1160 -96.8857 191° South  Level FlightAware Approximate
Sat 11:18:13 AM 51.1333 -96.8833 203° Southwest 180 207 5,100  Level Winnipeg Center
Sat 11:19:00 AM 51.0692 -96.8997 191° South  Level FlightAware Approximate
Sat 11:19:13 AM 51.0833 -96.8833 180° South 180 207 5,100  Level Winnipeg Center
Sat 11:20:00 AM 51.0224 -96.9137 191° South  Level FlightAware Approximate
Sat 11:20:13 AM 51.0333 -96.9167 203° Southwest 180 207 5,100  Level Winnipeg Center
Sat 11:21:00 AM 50.9756 -96.9276 191° South  Level FlightAware Approximate
Sat 11:21:13 AM 50.9833 -96.9167 180° South 180 207 5,100  Level Winnipeg Center
Sat 11:22:13 AM 50.9333 -96.9333 192° South 180 207 5,100  Level Winnipeg Center
Sat 11:23:13 AM 50.9000 -96.9333 180° South 180 207 5,100  Level Winnipeg Center
Sat 11:24:13 AM 50.8500 -96.9667 203° Southwest 180 207 5,100  Level Winnipeg Center
Sat 11:25:13 AM 50.8000 -97.0000 203° Southwest 170 196 5,100  Level Winnipeg Center
Sat 11:26:13 AM 50.7500 -97.0000 180° South 170 196 5,100  Level Winnipeg Center
Sat 11:27:13 AM 50.7000 -97.0167 192° South 170 196 5,100  Level Winnipeg Center
Sat 11:28:13 AM 50.6500 -97.0167 180° South 180 207 5,100  Level Winnipeg Center
Sat 11:29:13 AM 50.6167 -97.0500 212° Southwest 180 207 5,100  Level Winnipeg Center
Sat 11:30:13 AM 50.5667 -97.0500 180° South 170 196 5,100  Level Winnipeg Center
Sat 11:31:13 AM 50.5167 -97.0500 180° South 170 196 5,100  Level Winnipeg Center
Sat 11:32:13 AM 50.4667 -97.0167 157° South 170 196 5,100  Level Winnipeg Center
Sat 11:33:13 AM 50.4167 -97.0167 180° South 170 196 5,100  Level Winnipeg Center
Sat 11:34:13 AM 50.3667 -97.0167 180° South 170 196 5,100  Level Winnipeg Center
Sat 11:35:13 AM 50.3167 -97.0167 180° South 170 196 5,100 -100 Level Winnipeg Center
Sat 11:36:13 AM 50.2833 -97.0167 180° South 170 196 4,900 -300 Descending Winnipeg Center
Sat 11:37:13 AM 50.2333 -97.0167 180° South 170 196 4,500 -400 Descending Winnipeg Center
Sat 11:38:13 AM 50.1833 -97.0167 180° South 170 196 4,100 -200 Descending Winnipeg Center
Sat 11:39:13 AM 50.1333 -97.0167 180° South 160 184 4,100  Level Winnipeg Center
Sat 11:40:13 AM 50.1000 -97.0000 162° South 150 173 4,100  Level Winnipeg Center
Sat 11:41:13 AM 50.0500 -96.9667 157° South 150 173 4,100 -250 Level Winnipeg Center
Sat 11:42:13 AM 50.0167 -96.9167 136° Southeast 160 184 3,600 -400 Descending Winnipeg Center
Sat 11:43:13 AM 50.0000 -96.8667 117° Southeast 150 173 3,300 -250 Descending Winnipeg Center
Sat 11:44:13 AM 50.0000 -96.8167 90° East 140 161 3,100 -100 Descending Winnipeg Center
Sat 11:45:13 AM 49.9833 -96.7500 111° Southeast 130 150 3,100  Level Winnipeg Center
Sat 11:46:13 AM 49.9500 -96.7500 180° South 150 173 3,100 -50 Level Winnipeg Center
Sat 11:47:13 AM 49.9333 -96.8167 249° West 110 127 3,000 -200 Descending Winnipeg Center
Sat 11:48:13 AM 49.9500 -96.8333 327° Northwest 130 150 2,700 -250 Descending Winnipeg Center
Sat 11:49:13 AM 49.9667 -96.8833 297° West 140 161 2,500 -300 Descending Winnipeg Center
Sat 11:50:13 AM 49.9833 -96.9333 297° West 130 150 2,100 -200 Descending Winnipeg Center
Sat 11:51:13 AM 50.0000 -97.0000 291° West 100 115 2,100 -150 Level Winnipeg Center
Sat 11:52:13 AM 50.0167 -97.0167 327° Northwest 90 104 1,800 -500 Descending Winnipeg Center
Sat 11:53:13 AM 50.0333 -97.0500 308° West 60 69 1,100 -700 Descending Winnipeg Center

Login

Don't have an account? Register now (free) for customized features, flight alerts, and more!